Tampa, Florida
Traffic Map
Current Weather Conditions
Tampa, Florida
Broken Clouds
Broken Clouds
27°
Feels Like: 29°
Wind Chill: 27° Ceiling: 22000
Heat Index: 29° Visibility: 10mi
Dew Point: 24° Wind: 0mph
Humidity: 85% Direction: ° ()
Pressure: 29.98in Gusts: 0mph
Raw Report DataKTPA 300153Z 00000KT 10SM FEW027 BKN220 27/24 A2998 RMK AO2 SLP151 T02670239
Traffic Incident Summary
Active as of:
Severity:
Category:
InformationThere was an issue retrieving the traffic information for this location. Please try a different location or try again shortly.
Advertisements
Track Severe Weather on mobile